Time;durP1;ratioP1;P1;durP2;ratioP2;P2;SDS_P1;SDS_P2;PMS_P1;PMS_P2;Temp;Humidity;BMP_temperature;BMP_pressure;BME280_temperature;BME280_humidity;BME280_pressure;Samples;Min_cycle;Max_cycle;Signal;HPM_P1;HPM_P2
2021/12/17 00:01:05;;;;;;;381.02;48.78;;;8.20;99.90;;;;;;5043256;28;20036;-72
2021/12/17 00:04:24;;;;;;;;;;;8.30;99.90;;;;;;5045534;28;20531;-71
2021/12/17 00:08:55;;;;;;;418.92;49.42;;;8.30;99.90;;;;;;5028622;28;20055;-72
2021/12/17 00:11:22;;;;;;;384.90;47.03;;;8.30;99.90;;;;;;5028955;28;20044;-72
2021/12/17 00:13:49;;;;;;;344.40;45.38;;;8.30;99.90;;;;;;5028064;28;20053;-72
2021/12/17 00:16:20;;;;;;;221.48;40.50;;;8.30;99.90;;;;;;5028976;28;20036;-72
2021/12/17 00:19:00;;;;;;;301.55;45.65;;;8.20;99.90;;;;;;5012939;28;20698;-72
2021/12/17 00:48:56;;;;;;;293.00;45.22;;;8.30;99.90;;;;;;5044802;28;20424;-72
2021/12/17 00:54:20;;;;;;;273.25;43.85;;;8.30;99.90;;;;;;5044961;28;20041;-72
2021/12/17 00:56:52;;;;;;;315.50;44.65;;;8.30;99.90;;;;;;5027991;28;20055;-72
2021/12/17 00:59:19;;;;;;;273.70;41.00;;;8.30;99.90;;;;;;5025984;28;20080;-71
2021/12/17 01:01:46;;;;;;;213.50;39.72;;;8.30;99.90;;;;;;5026975;28;20044;-72
2021/12/17 01:04:13;;;;;;;227.48;37.95;;;8.30;99.90;;;;;;5027432;28;20480;-72
2021/12/17 01:06:39;;;;;;;231.90;38.00;;;8.30;99.90;;;;;;5039555;28;20590;-72
2021/12/17 01:09:08;;;;;;;224.07;38.65;;;8.30;99.90;;;;;;5026896;28;20052;-71
2021/12/17 01:11:34;;;;;;;255.50;39.63;;;8.20;99.90;;;;;;5043393;28;20033;-72
2021/12/17 01:14:03;;;;;;;206.60;36.53;;;8.30;99.90;;;;;;5026788;28;20458;-71
2021/12/17 01:16:29;;;;;;;223.70;37.90;;;8.30;99.90;;;;;;5043201;28;20460;-72
2021/12/17 01:42:48;;;;;;;;;;;8.30;99.90;;;;;;5043209;28;20103;-71
2021/12/17 01:45:14;;;;;;;211.38;37.47;;;8.30;99.90;;;;;;5046048;28;19921;-72
2021/12/17 01:47:40;;;;;;;168.45;35.92;;;8.30;99.90;;;;;;5046558;28;20622;-72
2021/12/17 02:01:01;;;;;;;184.50;36.50;;;8.30;99.90;;;;;;5041042;28;20056;-72
2021/12/17 02:03:27;;;;;;;147.82;32.42;;;8.30;99.90;;;;;;5029666;28;20355;-72
2021/12/17 02:05:53;;;;;;;136.23;32.95;;;8.30;99.90;;;;;;5045247;28;20140;-72
2021/12/17 02:08:19;;;;;;;211.60;36.45;;;8.40;99.90;;;;;;5029051;28;20204;-72
2021/12/17 02:32:22;;;;;;;92.95;27.73;;;8.40;99.90;;;;;;4995551;28;20336;-72
2021/12/17 02:37:34;;;;;;;105.22;27.25;;;8.30;99.90;;;;;;5030122;28;20516;-72
2021/12/17 02:40:15;;;;;;;80.88;25.58;;;8.30;99.90;;;;;;5045351;28;20057;-72
2021/12/17 02:48:06;;;;;;;124.90;29.42;;;8.30;99.90;;;;;;5034671;28;20053;-72
2021/12/17 02:50:35;;;;;;;159.52;29.90;;;8.40;99.90;;;;;;5044283;28;20595;-72
2021/12/17 02:53:02;;;;;;;99.22;26.88;;;8.30;99.90;;;;;;5044761;28;20045;-72
2021/12/17 02:55:30;;;;;;;123.55;27.98;;;8.30;99.90;;;;;;5023064;28;20527;-72
2021/12/17 02:57:56;;;;;;;90.40;25.02;;;8.40;99.90;;;;;;5045173;28;20060;-72
2021/12/17 03:00:22;;;;;;;113.82;27.15;;;8.40;99.90;;;;;;5025340;28;20558;-72
2021/12/17 03:02:51;;;;;;;88.80;25.08;;;8.30;99.90;;;;;;5045795;28;20072;-72
2021/12/17 03:05:17;;;;;;;106.45;26.00;;;8.30;99.90;;;;;;5046053;28;20431;-72
2021/12/17 03:07:46;;;;;;;72.68;22.10;;;8.30;99.90;;;;;;5046205;28;20040;-72
2021/12/17 03:10:14;;;;;;;93.82;23.58;;;8.30;99.90;;;;;;5014061;28;20045;-72
2021/12/17 03:12:45;;;;;;;85.65;23.25;;;8.30;99.90;;;;;;5028847;28;20056;-72
2021/12/17 03:25:40;;;;;;;175.70;29.55;;;8.20;99.90;;;;;;5026587;28;20080;-72
2021/12/17 03:28:06;;;;;;;116.45;24.45;;;8.20;99.90;;;;;;5027271;28;20689;-72
2021/12/17 03:30:31;;;;;;;49.15;19.05;;;8.30;99.90;;;;;;5025988;28;20053;-71
2021/12/17 03:32:57;;;;;;;54.92;20.05;;;8.20;99.90;;;;;;5027809;28;20455;-72
2021/12/17 03:35:23;;;;;;;144.23;27.60;;;8.20;99.90;;;;;;5046752;28;20412;-71
2021/12/17 03:37:49;;;;;;;69.63;22.13;;;8.20;99.90;;;;;;5046316;28;20400;-71
2021/12/17 03:40:17;;;;;;;73.82;22.83;;;8.20;99.90;;;;;;5029436;28;20051;-72
2021/12/17 03:42:47;;;;;;;77.57;23.55;;;8.30;99.90;;;;;;5013334;28;20052;-72
2021/12/17 03:45:14;;;;;;;157.10;28.08;;;8.20;99.90;;;;;;5046317;28;20059;-72
2021/12/17 03:47:40;;;;;;;50.38;19.08;;;8.30;99.90;;;;;;5021408;28;20053;-72
2021/12/17 03:50:06;;;;;;;86.30;21.30;;;8.30;99.90;;;;;;5026704;28;20469;-72
2021/12/17 03:52:32;;;;;;;145.82;28.05;;;8.30;99.90;;;;;;5044382;28;20041;-72
2021/12/17 03:55:01;;;;;;;142.80;27.52;;;8.30;99.90;;;;;;5046073;28;20099;-76
2021/12/17 03:57:27;;;;;;;146.13;27.27;;;8.30;99.90;;;;;;5029027;28;20053;-76
2021/12/17 03:59:53;;;;;;;74.93;22.17;;;8.30;99.90;;;;;;5008193;28;20366;-76
2021/12/17 04:02:21;;;;;;;56.22;20.05;;;8.30;99.90;;;;;;5042286;28;20422;-76
2021/12/17 04:04:47;;;;;;;61.33;21.20;;;8.30;99.90;;;;;;5044884;28;20132;-76
2021/12/17 04:07:13;;;;;;;68.63;22.15;;;8.30;99.90;;;;;;5045236;28;20128;-76
2021/12/17 04:09:39;;;;;;;86.07;22.65;;;8.30;99.90;;;;;;5028611;28;20091;-76
2021/12/17 04:12:10;;;;;;;87.70;23.20;;;8.30;99.90;;;;;;5028660;28;20467;-76
2021/12/17 04:14:47;;;;;;;46.35;18.38;;;8.30;99.90;;;;;;5012512;28;20495;-76
2021/12/17 04:17:22;;;;;;;72.50;23.33;;;8.30;99.90;;;;;;5044894;28;20488;-76
2021/12/17 04:19:48;;;;;;;63.95;22.10;;;8.30;99.90;;;;;;5028373;28;20490;-77
2021/12/17 04:22:14;;;;;;;121.35;26.33;;;8.30;99.90;;;;;;5028521;28;20048;-76
2021/12/17 04:24:40;;;;;;;80.88;22.95;;;8.30;99.90;;;;;;5044405;28;20284;-76
2021/12/17 04:27:06;;;;;;;178.20;28.48;;;8.30;99.90;;;;;;5045416;28;20043;-76
2021/12/17 04:29:52;;;;;;;137.13;26.35;;;8.30;99.90;;;;;;5026800;28;20044;-76
2021/12/17 04:32:18;;;;;;;120.95;26.15;;;8.30;99.90;;;;;;5038356;28;20045;-76
2021/12/17 04:34:44;;;;;;;86.82;22.60;;;8.30;99.90;;;;;;5041029;28;20512;-77
2021/12/17 04:37:09;;;;;;;92.50;24.10;;;8.30;99.90;;;;;;5024976;28;20044;-77
2021/12/17 04:39:54;;;;;;;101.10;24.70;;;8.30;99.90;;;;;;5009925;28;20045;-76
2021/12/17 04:42:29;;;;;;;131.27;27.05;;;8.30;99.90;;;;;;5045142;28;20037;-76
2021/12/17 04:44:57;;;;;;;111.88;27.10;;;8.30;99.90;;;;;;5028605;28;20094;-76
2021/12/17 04:58:20;;;;;;;172.05;30.15;;;8.30;99.90;;;;;;5044607;28;20045;-72
2021/12/17 05:00:46;;;;;;;134.48;25.90;;;8.20;99.90;;;;;;5012418;28;20064;-72
2021/12/17 05:03:12;;;;;;;234.20;33.80;;;8.10;99.90;;;;;;5044647;28;20049;-72
2021/12/17 05:05:38;;;;;;;209.52;30.90;;;8.10;99.90;;;;;;5043032;28;20045;-71
2021/12/17 05:08:10;;;;;;;68.55;22.65;;;8.10;99.90;;;;;;5044195;28;20312;-71
2021/12/17 05:11:03;;;;;;;91.80;23.42;;;8.10;99.90;;;;;;5027582;28;20561;-72
2021/12/17 05:19:20;;;;;;;122.80;28.08;;;8.00;99.90;;;;;;5030730;28;20049;-71
2021/12/17 05:21:46;;;;;;;164.48;29.73;;;8.00;99.90;;;;;;5021480;28;20454;-71
2021/12/17 05:24:11;;;;;;;58.47;21.85;;;8.00;99.90;;;;;;5028108;28;20107;-71
2021/12/17 05:26:37;;;;;;;77.90;22.08;;;8.10;99.90;;;;;;5027119;28;20045;-72
2021/12/17 05:29:03;;;;;;;79.35;22.48;;;8.00;99.90;;;;;;5029321;28;20060;-71
2021/12/17 05:31:32;;;;;;;86.25;22.98;;;8.00;99.90;;;;;;5012657;28;20045;-71
2021/12/17 05:33:59;;;;;;;117.22;24.98;;;8.00;99.90;;;;;;4995969;28;20050;-71
2021/12/17 05:36:25;;;;;;;249.88;33.28;;;8.00;99.90;;;;;;5013010;28;20057;-71
2021/12/17 05:38:51;;;;;;;229.00;29.95;;;8.00;99.90;;;;;;5022359;28;20049;-71
2021/12/17 05:41:17;;;;;;;318.88;35.33;;;8.00;99.90;;;;;;5044896;28;20692;-71
2021/12/17 05:43:43;;;;;;;256.77;31.98;;;8.00;99.90;;;;;;5030782;28;20044;-71
2021/12/17 05:46:13;;;;;;;291.55;32.47;;;8.00;99.90;;;;;;5031007;28;20037;-71
2021/12/17 05:48:40;;;;;;;271.80;32.47;;;8.00;99.90;;;;;;5015177;28;20037;-72
2021/12/17 05:51:10;;;;;;;341.48;35.67;;;8.00;99.90;;;;;;5048189;28;20061;-71
2021/12/17 05:53:36;;;;;;;307.98;33.75;;;8.00;99.90;;;;;;5030847;28;20458;-71
2021/12/17 05:56:03;;;;;;;257.05;33.53;;;8.00;99.90;;;;;;5043332;28;20041;-71
2021/12/17 05:58:32;;;;;;;82.40;23.90;;;8.00;99.90;;;;;;5045955;28;20080;-71
2021/12/17 06:00:58;;;;;;;84.00;24.33;;;8.00;99.90;;;;;;5029668;28;20539;-72
2021/12/17 06:03:24;;;;;;;154.48;28.45;;;8.00;99.90;;;;;;5018991;28;20349;-71
2021/12/17 06:05:50;;;;;;;221.43;32.33;;;8.00;99.90;;;;;;5027071;28;20076;-76
2021/12/17 06:08:16;;;;;;;244.60;34.05;;;8.10;99.90;;;;;;5011742;28;20124;-76
2021/12/17 06:10:42;;;;;;;245.48;31.63;;;8.10;99.90;;;;;;5010683;28;20465;-76
2021/12/17 06:13:08;;;;;;;208.07;29.58;;;8.10;99.90;;;;;;5010702;28;20057;-76
2021/12/17 06:15:33;;;;;;;217.43;30.50;;;8.10;99.90;;;;;;5024197;28;20120;-76
2021/12/17 06:17:59;;;;;;;170.45;28.75;;;8.00;99.90;;;;;;5030267;28;20094;-76
2021/12/17 06:20:25;;;;;;;156.45;28.65;;;8.10;99.90;;;;;;5047398;28;20144;-76
2021/12/17 06:22:52;;;;;;;160.20;27.45;;;8.00;99.90;;;;;;5007607;28;20462;-76
2021/12/17 06:25:18;;;;;;;180.65;27.77;;;8.00;99.90;;;;;;5026118;28;20111;-75
2021/12/17 06:27:44;;;;;;;212.40;31.73;;;8.00;99.90;;;;;;5040182;28;20033;-76
2021/12/17 06:30:15;;;;;;;123.60;24.73;;;8.00;99.90;;;;;;5022692;28;20079;-76
2021/12/17 06:32:41;;;;;;;118.80;24.77;;;8.00;99.90;;;;;;5022374;28;20032;-76
2021/12/17 06:35:08;;;;;;;150.27;26.23;;;8.00;99.90;;;;;;5038360;28;20191;-76
2021/12/17 06:37:40;;;;;;;146.50;27.25;;;8.00;99.90;;;;;;5037785;28;20602;-75
2021/12/17 06:40:08;;;;;;;172.05;29.40;;;8.00;99.90;;;;;;5037099;28;20523;-76
2021/12/17 06:42:34;;;;;;;210.70;29.65;;;8.00;99.90;;;;;;5023777;28;20098;-76
2021/12/17 06:45:06;;;;;;;192.55;27.65;;;8.00;99.90;;;;;;5044535;28;20410;-76
2021/12/17 06:47:33;;;;;;;209.13;29.40;;;8.00;99.90;;;;;;5045336;28;20096;-76
2021/12/17 07:11:17;;;;;;;318.55;33.83;;;7.90;99.90;;;;;;5042778;28;20045;-76
2021/12/17 07:33:17;;;;;;;87.20;25.10;;;7.90;99.90;;;;;;4982350;28;20076;-72
2021/12/17 07:35:48;;;;;;;95.60;25.00;;;7.90;99.90;;;;;;5023670;28;20503;-72
2021/12/17 07:41:01;;;;;;;114.45;27.50;;;8.00;99.90;;;;;;5043342;28;20386;-72
2021/12/17 07:43:35;;;;;;;105.45;27.70;;;8.00;99.90;;;;;;5026637;28;20071;-71
2021/12/17 07:46:04;;;;;;;110.15;27.13;;;8.00;99.90;;;;;;5006882;28;20393;-72
2021/12/17 07:48:31;;;;;;;65.60;22.90;;;8.10;99.90;;;;;;5038373;28;20053;-72
2021/12/17 07:50:57;;;;;;;100.65;26.05;;;8.00;99.90;;;;;;5034315;28;20202;-72
2021/12/17 07:53:23;;;;;;;97.10;26.20;;;8.00;99.90;;;;;;5033940;28;20041;-72
2021/12/17 07:55:49;;;;;;;124.82;27.65;;;8.00;99.90;;;;;;5018368;28;20041;-72
2021/12/17 07:58:15;;;;;;;84.82;23.90;;;8.00;99.90;;;;;;5024400;28;20053;-72
2021/12/17 08:00:41;;;;;;;108.45;25.77;;;8.00;99.90;;;;;;5023765;28;20084;-72
2021/12/17 08:03:07;;;;;;;96.20;25.38;;;8.00;99.90;;;;;;5039151;28;20102;-72
2021/12/17 08:05:34;;;;;;;144.95;28.63;;;8.00;99.90;;;;;;5038934;28;20045;-71
2021/12/17 08:08:00;;;;;;;102.53;24.92;;;8.00;99.90;;;;;;5038427;28;20080;-72
2021/12/17 08:10:26;;;;;;;73.85;23.23;;;8.10;99.90;;;;;;5047593;28;20099;-71
2021/12/17 08:12:55;;;;;;;94.85;23.48;;;8.00;99.90;;;;;;5022306;28;20061;-72
2021/12/17 08:15:28;;;;;;;98.40;24.75;;;8.10;99.90;;;;;;5008603;28;20409;-71
2021/12/17 08:18:20;;;;;;;106.97;25.25;;;8.10;99.90;;;;;;5026887;28;20053;-73
2021/12/17 08:26:21;;;;;;;122.50;26.05;;;8.10;99.90;;;;;;5037651;28;20531;-73
2021/12/17 08:29:25;;;;;;;116.55;25.52;;;8.10;99.90;;;;;;5030904;28;20049;-73
2021/12/17 08:31:39;;;;;;;99.00;24.30;;;8.10;99.90;;;;;;5022005;28;20507;-73
2021/12/17 08:34:05;;;;;;;127.20;25.67;;;8.10;99.90;;;;;;5033072;28;20125;-73
2021/12/17 08:36:34;;;;;;;84.30;22.45;;;8.10;99.90;;;;;;5025254;28;20059;-73
2021/12/17 08:39:00;;;;;;;128.33;26.63;;;8.10;99.90;;;;;;5031967;28;20454;-73
2021/12/17 08:41:27;;;;;;;95.65;24.33;;;8.10;99.90;;;;;;5037927;28;20036;-73
2021/12/17 08:43:53;;;;;;;122.57;26.25;;;8.10;99.90;;;;;;5021738;28;20498;-73
2021/12/17 08:46:19;;;;;;;108.43;26.13;;;8.10;99.90;;;;;;5023871;28;20356;-73
2021/12/17 08:48:45;;;;;;;78.43;22.23;;;8.20;99.90;;;;;;5023056;28;20536;-73
2021/12/17 08:51:11;;;;;;;89.65;24.17;;;8.20;99.90;;;;;;5000724;28;20072;-73
2021/12/17 08:53:38;;;;;;;83.60;23.58;;;8.20;99.90;;;;;;5022257;28;20036;-73
2021/12/17 08:56:05;;;;;;;86.50;24.70;;;8.20;99.90;;;;;;5034895;28;20056;-73
2021/12/17 08:58:32;;;;;;;87.60;23.48;;;8.20;99.90;;;;;;5022342;28;20492;-73
2021/12/17 09:01:03;;;;;;;83.43;23.40;;;8.20;99.90;;;;;;5006769;28;20560;-73
2021/12/17 09:03:30;;;;;;;78.57;23.05;;;8.20;99.90;;;;;;5004877;28;20130;-72
2021/12/17 09:05:56;;;;;;;89.85;24.75;;;8.20;99.90;;;;;;5001343;28;20053;-73
2021/12/17 09:08:22;;;;;;;95.97;24.15;;;8.20;99.90;;;;;;5006379;28;20048;-73
2021/12/17 09:10:55;;;;;;;89.75;24.05;;;8.20;99.90;;;;;;5010879;28;20106;-73
2021/12/17 09:13:25;;;;;;;88.40;24.90;;;8.30;99.90;;;;;;5022042;28;20416;-73
2021/12/17 09:15:54;;;;;;;71.45;23.60;;;8.30;99.90;;;;;;5022463;28;20044;-74
2021/12/17 09:18:20;;;;;;;66.13;22.35;;;8.30;99.90;;;;;;5036534;28;20049;-73
2021/12/17 09:20:45;;;;;;;66.30;22.50;;;8.30;99.90;;;;;;5005336;28;20040;-73
2021/12/17 09:23:12;;;;;;;64.85;22.15;;;8.30;99.90;;;;;;5018977;28;20052;-73
2021/12/17 09:25:38;;;;;;;66.82;22.77;;;8.40;99.90;;;;;;5002765;28;20044;-74
2021/12/17 09:28:05;;;;;;;77.35;22.98;;;8.40;99.90;;;;;;5035844;28;20049;-74
2021/12/17 09:30:31;;;;;;;69.28;22.75;;;8.40;99.90;;;;;;5050277;28;20075;-74
2021/12/17 09:32:57;;;;;;;61.35;22.13;;;8.40;99.90;;;;;;5020071;28;20496;-73
2021/12/17 09:35:24;;;;;;;50.30;21.20;;;8.50;99.90;;;;;;5017168;28;20049;-74
2021/12/17 09:37:51;;;;;;;54.35;21.30;;;8.40;99.90;;;;;;5029058;28;20060;-74
2021/12/17 09:40:17;;;;;;;48.80;20.90;;;8.50;99.90;;;;;;5030499;28;20049;-74
2021/12/17 09:42:45;;;;;;;51.92;20.70;;;8.50;99.90;;;;;;5026253;28;20515;-74
2021/12/17 09:45:14;;;;;;;51.63;20.00;;;8.50;99.90;;;;;;5019291;28;20098;-74
2021/12/17 09:47:41;;;;;;;49.13;21.42;;;8.50;99.90;;;;;;5030141;28;20654;-73
2021/12/17 09:50:12;;;;;;;56.53;21.70;;;8.60;99.90;;;;;;5038932;28;20040;-74
2021/12/17 09:52:41;;;;;;;50.85;21.30;;;8.60;99.90;;;;;;5034324;28;20049;-73
2021/12/17 09:55:08;;;;;;;46.42;19.90;;;8.60;99.90;;;;;;5018806;28;20100;-73
2021/12/17 09:57:37;;;;;;;53.83;22.40;;;8.70;99.90;;;;;;5021066;28;20061;-73
2021/12/17 10:00:19;;;;;;;53.90;21.88;;;8.70;99.90;;;;;;5038947;28;20106;-74
2021/12/17 10:02:48;;;;;;;48.53;21.35;;;8.70;99.90;;;;;;5020654;28;20040;-78
2021/12/17 10:05:25;;;;;;;46.33;20.38;;;8.70;99.90;;;;;;5008025;28;20045;-78
2021/12/17 10:08:19;;;;;;;46.95;20.77;;;8.70;99.90;;;;;;5038930;28;20103;-78
2021/12/17 10:11:04;;;;;;;52.28;21.85;;;8.80;99.90;;;;;;5035345;28;20084;-78
2021/12/17 10:13:34;;;;;;;44.78;19.25;;;8.80;99.90;;;;;;5028885;28;20382;-78
2021/12/17 10:16:06;;;;;;;38.03;19.02;;;8.80;99.90;;;;;;5023682;28;20075;-78
2021/12/17 10:18:49;;;;;;;38.35;19.67;;;8.80;99.90;;;;;;5024323;28;20045;-77
2021/12/17 10:21:23;;;;;;;43.58;20.33;;;8.80;99.90;;;;;;5025123;28;20717;-77
2021/12/17 10:23:51;;;;;;;37.40;18.92;;;8.80;99.90;;;;;;5055054;28;20133;-77
2021/12/17 10:26:19;;;;;;;36.28;18.85;;;8.80;99.90;;;;;;5040992;28;20044;-78
2021/12/17 10:28:57;;;;;;;41.25;19.70;;;8.90;99.90;;;;;;5013587;28;20070;-77
2021/12/17 10:31:24;;;;;;;42.55;20.35;;;8.90;99.90;;;;;;5044408;28;20033;-77
2021/12/17 10:33:54;;;;;;;43.05;21.05;;;8.90;99.90;;;;;;5027618;28;20130;-77
2021/12/17 10:36:41;;;;;;;43.17;20.38;;;8.90;99.90;;;;;;5025833;28;20068;-77
2021/12/17 10:39:31;;;;;;;42.22;20.20;;;8.90;99.90;;;;;;5024217;28;20123;-78
2021/12/17 10:41:58;;;;;;;41.55;20.33;;;8.90;99.90;;;;;;5028249;28;20513;-78
2021/12/17 10:44:27;;;;;;;45.22;22.30;;;8.90;99.90;;;;;;5025762;28;20060;-78
2021/12/17 10:49:33;;;;;;;41.97;22.73;;;8.90;99.90;;;;;;5039351;28;20118;-79
2021/12/17 10:52:08;;;;;;;33.10;18.70;;;9.00;99.90;;;;;;5017847;28;20064;-77
2021/12/17 10:54:40;;;;;;;40.47;20.45;;;9.00;99.90;;;;;;5035760;28;20045;-77
2021/12/17 10:57:07;;;;;;;36.70;19.60;;;9.10;99.90;;;;;;5052550;28;20063;-77
2021/12/17 10:59:35;;;;;;;38.60;19.48;;;9.00;99.90;;;;;;5027156;28;20052;-77
2021/12/17 11:02:10;;;;;;;37.17;19.65;;;9.10;99.90;;;;;;5042739;28;20069;-77
2021/12/17 11:04:41;;;;;;;40.28;20.10;;;9.10;99.90;;;;;;5028425;28;20056;-77
2021/12/17 11:07:16;;;;;;;35.17;18.42;;;9.10;99.90;;;;;;5025523;28;20090;-77
2021/12/17 11:09:50;;;;;;;39.80;19.70;;;9.10;99.90;;;;;;5042385;28;20057;-77
2021/12/17 11:12:31;;;;;;;31.73;17.10;;;9.20;99.90;;;;;;5052045;28;20124;-77
2021/12/17 11:15:18;;;;;;;34.72;17.85;;;9.20;99.90;;;;;;5025756;28;20558;-77
2021/12/17 11:17:50;;;;;;;33.80;17.52;;;9.20;99.90;;;;;;5036434;28;20047;-77
2021/12/17 11:20:21;;;;;;;40.40;20.40;;;9.20;99.90;;;;;;5044080;28;20095;-77
2021/12/17 11:22:50;;;;;;;41.95;20.42;;;9.20;99.90;;;;;;5027031;28;20442;-77
2021/12/17 11:25:17;;;;;;;46.80;26.10;;;9.30;99.90;;;;;;5028690;28;20041;-77
2021/12/17 11:27:43;;;;;;;42.53;23.05;;;9.30;99.90;;;;;;5013702;28;20045;-77
2021/12/17 11:30:17;;;;;;;33.08;19.02;;;9.30;99.90;;;;;;5036970;28;20038;-78
2021/12/17 11:32:44;;;;;;;43.60;21.77;;;9.30;99.90;;;;;;5025814;28;20076;-78
2021/12/17 11:35:15;;;;;;;35.08;19.85;;;9.30;99.90;;;;;;5020514;28;20250;-77
2021/12/17 11:37:46;;;;;;;39.38;20.25;;;9.30;99.90;;;;;;5032123;28;20056;-77
2021/12/17 11:40:42;;;;;;;40.97;21.42;;;9.40;99.90;;;;;;5039267;28;20052;-77
2021/12/17 11:43:29;;;;;;;42.17;21.77;;;9.30;99.90;;;;;;5041112;28;20049;-77
2021/12/17 11:46:04;;;;;;;31.92;17.98;;;9.40;99.90;;;;;;5035471;28;20052;-78
2021/12/17 11:48:32;;;;;;;32.45;16.80;;;9.40;99.90;;;;;;5031270;28;20526;-78
2021/12/17 11:51:16;;;;;;;42.50;19.65;;;9.40;99.90;;;;;;5020799;28;20095;-77
2021/12/17 11:54:16;;;;;;;31.55;17.30;;;9.40;99.90;;;;;;5026502;28;20044;-77
2021/12/17 11:56:52;;;;;;;31.83;17.63;;;9.40;99.90;;;;;;5012806;28;20055;-77
2021/12/17 11:59:27;;;;;;;35.47;18.92;;;9.40;99.90;;;;;;5029170;28;20060;-77
2021/12/17 12:02:14;;;;;;;34.40;19.52;;;9.40;99.90;;;;;;5022994;28;20118;-77
2021/12/17 12:05:02;;;;;;;34.03;19.55;;;9.50;99.90;;;;;;5039308;28;20048;-77
2021/12/17 12:07:28;;;;;;;44.60;21.00;;;9.40;99.90;;;;;;5043298;28;20053;-78
2021/12/17 12:10:00;;;;;;;28.83;17.25;;;9.40;99.90;;;;;;5024894;28;20041;-77
2021/12/17 12:12:50;;;;;;;40.13;19.23;;;9.40;99.90;;;;;;5021429;28;20159;-77
2021/12/17 12:15:16;;;;;;;;;;;9.50;99.90;;;;;;5015694;28;20577;-77
2021/12/17 12:18:18;;;;;;;29.27;17.17;;;9.40;99.90;;;;;;5022620;28;19929;-78
2021/12/17 12:20:50;;;;;;;35.42;19.42;;;9.50;99.90;;;;;;5031893;28;20033;-77
2021/12/17 12:23:19;;;;;;;28.42;16.88;;;9.40;99.90;;;;;;5029528;28;20084;-77
2021/12/17 12:26:08;;;;;;;27.48;16.33;;;9.50;99.90;;;;;;5022768;28;20040;-77
2021/12/17 12:28:47;;;;;;;27.42;14.60;;;9.50;99.90;;;;;;5027132;28;20057;-77
2021/12/17 12:31:33;;;;;;;24.25;15.10;;;9.50;99.90;;;;;;5029943;28;20060;-78
2021/12/17 12:34:12;;;;;;;28.92;15.48;;;9.50;99.90;;;;;;5050404;28;20091;-77
2021/12/17 12:37:00;;;;;;;28.17;15.20;;;9.50;99.90;;;;;;5049559;28;20049;-77
2021/12/17 12:39:49;;;;;;;16.38;10.45;;;9.50;99.90;;;;;;5018058;28;20425;-78
2021/12/17 12:42:19;;;;;;;18.38;10.40;;;9.60;99.90;;;;;;5016777;28;20044;-77
2021/12/17 12:44:45;;;;;;;20.10;11.80;;;9.60;99.90;;;;;;5021406;28;20535;-77
2021/12/17 12:47:35;;;;;;;15.40;9.95;;;9.50;99.90;;;;;;5008876;28;20060;-77
2021/12/17 12:50:06;;;;;;;18.75;10.80;;;9.60;99.90;;;;;;5047592;28;20045;-77
2021/12/17 12:52:44;;;;;;;13.25;8.52;;;9.60;99.90;;;;;;5047527;28;20423;-78
2021/12/17 12:55:24;;;;;;;12.35;8.35;;;9.60;99.90;;;;;;5027250;28;20060;-77
2021/12/17 12:57:59;;;;;;;;;;;9.60;99.90;;;;;;5058253;28;20397;-78
2021/12/17 13:00:37;;;;;;;11.32;7.05;;;9.60;99.90;;;;;;5033583;28;19921;-73
2021/12/17 13:03:04;;;;;;;13.38;7.85;;;9.60;99.90;;;;;;5029899;28;20049;-73
2021/12/17 13:05:34;;;;;;;11.73;7.25;;;9.60;99.90;;;;;;5034300;28;20049;-72
2021/12/17 13:08:05;;;;;;;11.85;6.32;;;9.60;99.90;;;;;;5031724;28;20053;-73
2021/12/17 13:10:37;;;;;;;9.90;5.63;;;9.60;99.90;;;;;;5054312;28;20106;-73
2021/12/17 13:13:21;;;;;;;8.38;5.18;;;9.60;99.90;;;;;;5031906;28;20069;-73
2021/12/17 13:16:03;;;;;;;7.97;3.90;;;9.60;99.90;;;;;;5025339;28;20041;-73
2021/12/17 13:24:21;;;;;;;7.53;5.32;;;9.60;99.90;;;;;;5041959;28;20520;-72
2021/12/17 13:26:56;;;;;;;6.93;4.15;;;9.60;99.90;;;;;;5025055;28;20266;-72
2021/12/17 13:29:31;;;;;;;4.22;2.22;;;9.60;99.90;;;;;;5027130;28;20064;-73
2021/12/17 13:32:03;;;;;;;3.42;2.13;;;9.60;99.90;;;;;;5043424;28;20571;-73
2021/12/17 13:34:33;;;;;;;4.10;2.30;;;9.50;99.90;;;;;;5042351;28;20046;-73
2021/12/17 13:37:03;;;;;;;3.88;2.50;;;9.50;99.90;;;;;;5014538;28;20073;-73
2021/12/17 13:39:49;;;;;;;;;;;9.60;99.90;;;;;;5032081;28;20527;-72
2021/12/17 13:42:36;;;;;;;7.65;3.95;;;9.50;99.90;;;;;;5030438;28;19932;-73
2021/12/17 13:45:08;;;;;;;6.80;4.07;;;9.50;99.90;;;;;;5025683;28;20059;-73
2021/12/17 13:47:45;;;;;;;10.15;5.32;;;9.50;99.90;;;;;;5025763;28;20045;-73
2021/12/17 13:50:17;;;;;;;9.43;5.10;;;9.50;99.90;;;;;;5021255;28;20408;-73
2021/12/17 13:53:04;;;;;;;7.82;5.70;;;9.50;99.90;;;;;;5027732;28;20106;-72
2021/12/17 13:55:37;;;;;;;7.88;5.40;;;9.60;99.90;;;;;;5043663;28;20061;-72
2021/12/17 13:58:11;;;;;;;9.98;5.85;;;9.50;99.90;;;;;;5028871;28;20056;-73
2021/12/17 14:00:43;;;;;;;8.32;5.70;;;9.40;99.90;;;;;;5037407;28;20633;-72
2021/12/17 14:03:11;;;;;;;9.27;5.85;;;9.50;99.90;;;;;;5035532;28;20055;-72
2021/12/17 14:05:41;;;;;;;6.95;5.38;;;9.50;99.90;;;;;;5009700;28;20041;-73
2021/12/17 14:08:15;;;;;;;8.63;5.57;;;9.50;99.90;;;;;;5009576;28;20041;-73
2021/12/17 14:10:42;;;;;;;8.18;5.32;;;9.40;99.90;;;;;;5008658;28;20401;-72
2021/12/17 14:13:21;;;;;;;8.90;5.75;;;9.40;99.90;;;;;;5033503;28;20053;-73
2021/12/17 14:15:48;;;;;;;8.93;6.07;;;9.40;99.90;;;;;;5035839;28;20053;-73
2021/12/17 14:18:16;;;;;;;8.73;6.00;;;9.50;99.90;;;;;;5019693;28;20306;-73
2021/12/17 14:20:51;;;;;;;8.52;6.75;;;9.40;99.90;;;;;;5020920;28;20089;-72
2021/12/17 14:23:22;;;;;;;10.77;7.68;;;9.40;99.90;;;;;;5020334;28;20048;-73
2021/12/17 14:25:53;;;;;;;10.55;6.68;;;9.40;99.90;;;;;;5032428;28;20053;-73
2021/12/17 14:28:23;;;;;;;9.82;6.82;;;9.40;99.90;;;;;;5031954;28;20037;-73
2021/12/17 14:30:59;;;;;;;9.13;7.10;;;9.40;99.90;;;;;;5033704;28;20656;-73
2021/12/17 14:33:33;;;;;;;10.32;6.93;;;9.40;99.90;;;;;;5029940;28;20738;-73
2021/12/17 14:36:19;;;;;;;12.50;8.43;;;9.30;99.90;;;;;;5030767;28;20041;-73
2021/12/17 14:38:51;;;;;;;10.80;6.97;;;9.40;99.90;;;;;;5035636;28;20133;-73
2021/12/17 14:41:31;;;;;;;11.65;8.50;;;9.40;99.90;;;;;;5035064;28;20052;-73
2021/12/17 14:44:03;;;;;;;15.20;9.63;;;9.40;99.90;;;;;;5035737;28;20444;-73
2021/12/17 14:46:55;;;;;;;15.13;9.65;;;9.30;99.90;;;;;;5050486;28;20422;-73
2021/12/17 14:59:24;;;;;;;15.60;10.45;;;9.30;99.90;;;;;;5021339;28;20142;-73
2021/12/17 15:03:40;;;;;;;17.35;10.95;;;9.30;99.90;;;;;;5042612;28;20218;-73
2021/12/17 15:06:05;;;;;;;13.40;9.82;;;9.30;99.90;;;;;;5040954;28;20053;-73
2021/12/17 15:08:32;;;;;;;14.55;9.77;;;9.30;99.90;;;;;;5039824;28;20041;-73
2021/12/17 15:11:03;;;;;;;12.45;8.70;;;9.30;99.90;;;;;;5026744;28;20477;-73
2021/12/17 15:13:29;;;;;;;12.63;8.88;;;9.30;99.90;;;;;;5038862;28;20049;-73
2021/12/17 15:15:57;;;;;;;12.82;9.10;;;9.30;99.90;;;;;;5008979;28;20067;-73
2021/12/17 15:18:23;;;;;;;13.60;8.98;;;9.30;99.90;;;;;;5041052;28;20646;-73
2021/12/17 15:20:51;;;;;;;13.88;9.32;;;9.20;99.90;;;;;;5022048;28;20282;-73
2021/12/17 15:23:18;;;;;;;14.48;9.27;;;9.20;99.90;;;;;;5038898;28;20045;-73
2021/12/17 15:25:45;;;;;;;11.85;8.80;;;9.30;99.90;;;;;;5043662;28;20037;-73
2021/12/17 15:28:13;;;;;;;12.63;8.98;;;9.30;99.90;;;;;;5033467;28;20377;-73
2021/12/17 15:30:48;;;;;;;15.20;9.25;;;9.30;99.90;;;;;;5017411;28;20033;-77
2021/12/17 15:33:15;;;;;;;12.68;9.10;;;9.30;99.90;;;;;;5018413;28;20075;-77
2021/12/17 15:35:42;;;;;;;12.18;8.57;;;9.20;99.90;;;;;;5015141;28;20146;-78
2021/12/17 15:38:09;;;;;;;13.35;8.88;;;9.20;99.90;;;;;;5021947;28;20048;-77
2021/12/17 15:40:41;;;;;;;10.32;7.75;;;9.30;99.90;;;;;;5037520;28;20044;-77
2021/12/17 15:43:10;;;;;;;10.77;7.90;;;9.20;99.90;;;;;;5017625;28;20601;-77
2021/12/17 15:45:40;;;;;;;10.30;7.77;;;9.20;99.90;;;;;;5021836;28;20515;-77
2021/12/17 15:48:08;;;;;;;11.60;8.20;;;9.20;99.90;;;;;;5030519;28;20044;-77
2021/12/17 15:50:34;;;;;;;12.05;8.88;;;9.20;99.90;;;;;;5019313;28;20864;-77
2021/12/17 15:53:00;;;;;;;11.77;9.25;;;9.20;99.90;;;;;;5005899;28;20045;-77
2021/12/17 15:55:29;;;;;;;11.10;9.30;;;9.20;99.90;;;;;;5037772;28;20049;-77
2021/12/17 15:57:56;;;;;;;11.32;10.10;;;9.20;99.90;;;;;;5041407;28;20052;-77
2021/12/17 16:00:27;;;;;;;13.45;9.98;;;9.20;99.90;;;;;;5024034;28;20138;-77
2021/12/17 16:02:56;;;;;;;11.80;9.63;;;9.20;99.90;;;;;;5041722;28;20037;-77
2021/12/17 16:05:24;;;;;;;15.50;12.85;;;9.20;99.90;;;;;;5009123;28;20499;-77
2021/12/17 16:07:52;;;;;;;18.20;15.15;;;9.20;99.90;;;;;;5038212;28;20535;-77
2021/12/17 16:21:03;;;;;;;15.80;12.50;;;9.20;99.90;;;;;;5033430;28;20056;-72